Flugplatz Heubach

Für EDTH sind keine METAR/TAF Berichte vorhanden.
Es werden die Flugwettermeldungen vom Flugplatz Adolf Würth in 36 km Entfernung angezeigt.

Bericht für EDTY

vom 14.08. um 07:50 UTC

Wind 3 kt aus 250°

Sichtweite 10 km oder mehr

gering bewölkt in 200 ft

Temperatur 21.0°C

Taupunkt 18.0°C

Luftfeuchtigkeit 83%

Luftdruck 1016 hPa

EDTY 140750Z 25003KT 220V280 9999 FEW002 21/18 Q1016

Prognose für EDTY

vom 14.08. um 05:00 UTC

Zwischen 06:00 UTC und 15:00 UTC

variable Windrichtung mit 3 kt

Sichtweite 9000 m

aufgelockert bewölkt in 300 ft


Zwischen 06:00 UTC und 08:00 UTC zeitweise

aufgebrochene Bewölkung in 300 ft


Zwischen 13:00 UTC und 15:00 UTC zeitweise mit einer Wahrscheinlichkeit von 40%

Wind 15 kt aus 300° in Böen 25 kt

Sichtweite 4000 m

Code: TSRA

aufgelockert bewölkt in 3000 ft

TAF EDTY 140500Z 1406/1415 VRB03KT 9000 SCT003 TEMPO 1406/1408 BKN003 PROB40 TEMPO 1413/1415 30015G25KT 4000 TSRA SCT030CB
Impressum